sensor_id;sensor_type;location;lat;lon;timestamp;P1;durP1;ratioP1;P2;durP2;ratioP2
24407;SDS011;12542;50.924;4.516;2022-12-24T00:03:49;31.00;;;5.35;;
24407;SDS011;12542;50.924;4.516;2022-12-24T00:06:20;25.80;;;4.45;;
24407;SDS011;12542;50.924;4.516;2022-12-24T00:08:47;38.63;;;5.70;;
24407;SDS011;12542;50.924;4.516;2022-12-24T00:11:15;20.90;;;4.47;;
24407;SDS011;12542;50.924;4.516;2022-12-24T00:13:41;32.72;;;4.93;;
24407;SDS011;12542;50.924;4.516;2022-12-24T00:16:07;31.92;;;4.55;;
24407;SDS011;12542;50.924;4.516;2022-12-24T00:18:33;42.60;;;4.82;;
24407;SDS011;12542;50.924;4.516;2022-12-24T00:20:59;30.55;;;5.70;;
24407;SDS011;12542;50.924;4.516;2022-12-24T00:26:49;25.77;;;4.07;;
24407;SDS011;12542;50.924;4.516;2022-12-24T00:29:18;25.20;;;4.15;;
24407;SDS011;12542;50.924;4.516;2022-12-24T00:31:45;37.53;;;5.05;;
24407;SDS011;12542;50.924;4.516;2022-12-24T00:34:10;33.58;;;4.65;;
24407;SDS011;12542;50.924;4.516;2022-12-24T00:36:37;36.05;;;5.35;;
24407;SDS011;12542;50.924;4.516;2022-12-24T00:39:02;33.72;;;4.57;;
24407;SDS011;12542;50.924;4.516;2022-12-24T00:41:28;32.55;;;4.47;;
24407;SDS011;12542;50.924;4.516;2022-12-24T00:43:56;36.90;;;5.28;;
24407;SDS011;12542;50.924;4.516;2022-12-24T00:46:24;36.22;;;5.20;;
24407;SDS011;12542;50.924;4.516;2022-12-24T00:48:50;36.53;;;5.65;;
24407;SDS011;12542;50.924;4.516;2022-12-24T00:51:17;28.35;;;4.53;;
24407;SDS011;12542;50.924;4.516;2022-12-24T00:53:44;35.55;;;4.03;;
24407;SDS011;12542;50.924;4.516;2022-12-24T00:56:10;22.40;;;4.50;;
24407;SDS011;12542;50.924;4.516;2022-12-24T00:58:36;25.48;;;3.95;;
24407;SDS011;12542;50.924;4.516;2022-12-24T01:01:03;27.60;;;4.13;;
24407;SDS011;12542;50.924;4.516;2022-12-24T01:03:29;18.92;;;3.22;;
24407;SDS011;12542;50.924;4.516;2022-12-24T01:08:29;29.38;;;4.15;;
24407;SDS011;12542;50.924;4.516;2022-12-24T01:10:55;33.53;;;4.82;;
24407;SDS011;12542;50.924;4.516;2022-12-24T01:13:22;33.33;;;5.38;;
24407;SDS011;12542;50.924;4.516;2022-12-24T01:15:48;27.70;;;4.15;;
24407;SDS011;12542;50.924;4.516;2022-12-24T01:18:14;24.80;;;3.70;;
24407;SDS011;12542;50.924;4.516;2022-12-24T01:20:39;29.33;;;3.70;;
24407;SDS011;12542;50.924;4.516;2022-12-24T01:23:06;20.63;;;3.97;;
24407;SDS011;12542;50.924;4.516;2022-12-24T01:25:32;22.25;;;3.75;;
24407;SDS011;12542;50.924;4.516;2022-12-24T01:27:57;25.13;;;4.57;;
24407;SDS011;12542;50.924;4.516;2022-12-24T01:30:24;26.65;;;4.97;;
24407;SDS011;12542;50.924;4.516;2022-12-24T01:32:50;26.40;;;4.35;;
24407;SDS011;12542;50.924;4.516;2022-12-24T01:35:16;23.33;;;4.13;;
24407;SDS011;12542;50.924;4.516;2022-12-24T01:37:42;24.15;;;4.13;;
24407;SDS011;12542;50.924;4.516;2022-12-24T01:40:14;20.92;;;4.05;;
24407;SDS011;12542;50.924;4.516;2022-12-24T01:43:00;24.17;;;4.03;;
24407;SDS011;12542;50.924;4.516;2022-12-24T01:45:52;18.90;;;3.05;;
24407;SDS011;12542;50.924;4.516;2022-12-24T01:48:41;20.38;;;3.38;;
24407;SDS011;12542;50.924;4.516;2022-12-24T01:51:53;19.58;;;2.88;;
24407;SDS011;12542;50.924;4.516;2022-12-24T01:54:03;22.60;;;3.30;;
24407;SDS011;12542;50.924;4.516;2022-12-24T01:56:34;23.10;;;3.65;;
24407;SDS011;12542;50.924;4.516;2022-12-24T01:59:06;18.20;;;3.17;;
24407;SDS011;12542;50.924;4.516;2022-12-24T02:01:34;19.67;;;3.10;;
24407;SDS011;12542;50.924;4.516;2022-12-24T02:04:02;17.52;;;2.70;;
24407;SDS011;12542;50.924;4.516;2022-12-24T02:06:36;22.45;;;2.70;;
24407;SDS011;12542;50.924;4.516;2022-12-24T02:09:02;22.35;;;2.50;;
24407;SDS011;12542;50.924;4.516;2022-12-24T02:11:28;20.35;;;2.85;;
24407;SDS011;12542;50.924;4.516;2022-12-24T02:13:56;21.45;;;3.15;;
24407;SDS011;12542;50.924;4.516;2022-12-24T02:24:51;27.45;;;4.88;;
24407;SDS011;12542;50.924;4.516;2022-12-24T02:33:18;28.60;;;5.75;;
24407;SDS011;12542;50.924;4.516;2022-12-24T02:36:00;31.17;;;4.90;;
24407;SDS011;12542;50.924;4.516;2022-12-24T02:41:17;22.23;;;3.78;;
24407;SDS011;12542;50.924;4.516;2022-12-24T02:43:47;31.30;;;4.80;;
24407;SDS011;12542;50.924;4.516;2022-12-24T02:46:17;28.98;;;4.72;;
24407;SDS011;12542;50.924;4.516;2022-12-24T02:48:50;29.17;;;4.43;;
24407;SDS011;12542;50.924;4.516;2022-12-24T02:51:22;29.42;;;4.88;;
24407;SDS011;12542;50.924;4.516;2022-12-24T02:53:49;25.27;;;3.97;;
24407;SDS011;12542;50.924;4.516;2022-12-24T02:58:58;23.10;;;4.43;;
24407;SDS011;12542;50.924;4.516;2022-12-24T03:01:53;24.50;;;3.83;;
24407;SDS011;12542;50.924;4.516;2022-12-24T03:07:22;21.90;;;3.78;;
24407;SDS011;12542;50.924;4.516;2022-12-24T03:10:09;24.75;;;3.88;;
24407;SDS011;12542;50.924;4.516;2022-12-24T03:12:53;19.45;;;3.83;;
24407;SDS011;12542;50.924;4.516;2022-12-24T03:15:24;24.58;;;3.83;;
24407;SDS011;12542;50.924;4.516;2022-12-24T03:17:52;23.00;;;4.40;;
24407;SDS011;12542;50.924;4.516;2022-12-24T03:20:31;17.30;;;3.70;;
24407;SDS011;12542;50.924;4.516;2022-12-24T03:23:01;23.85;;;3.65;;
24407;SDS011;12542;50.924;4.516;2022-12-24T03:25:28;23.02;;;3.65;;
24407;SDS011;12542;50.924;4.516;2022-12-24T03:27:56;23.88;;;3.83;;
24407;SDS011;12542;50.924;4.516;2022-12-24T03:30:25;30.58;;;4.45;;
24407;SDS011;12542;50.924;4.516;2022-12-24T03:32:50;18.02;;;3.83;;
24407;SDS011;12542;50.924;4.516;2022-12-24T03:35:16;17.70;;;3.42;;
24407;SDS011;12542;50.924;4.516;2022-12-24T03:37:42;20.65;;;3.58;;
24407;SDS011;12542;50.924;4.516;2022-12-24T03:40:08;22.73;;;5.60;;
24407;SDS011;12542;50.924;4.516;2022-12-24T03:42:34;22.15;;;4.15;;
24407;SDS011;12542;50.924;4.516;2022-12-24T03:45:00;22.50;;;4.25;;
24407;SDS011;12542;50.924;4.516;2022-12-24T03:47:25;32.40;;;4.70;;
24407;SDS011;12542;50.924;4.516;2022-12-24T03:49:51;30.73;;;3.72;;
24407;SDS011;12542;50.924;4.516;2022-12-24T03:52:17;29.05;;;4.75;;
24407;SDS011;12542;50.924;4.516;2022-12-24T03:54:42;25.15;;;4.78;;
24407;SDS011;12542;50.924;4.516;2022-12-24T03:57:08;25.77;;;4.50;;
24407;SDS011;12542;50.924;4.516;2022-12-24T03:59:34;23.65;;;3.95;;
24407;SDS011;12542;50.924;4.516;2022-12-24T04:02:00;36.85;;;5.32;;
24407;SDS011;12542;50.924;4.516;2022-12-24T04:04:26;29.58;;;4.70;;
24407;SDS011;12542;50.924;4.516;2022-12-24T04:06:51;38.65;;;4.78;;
24407;SDS011;12542;50.924;4.516;2022-12-24T04:09:19;29.92;;;4.85;;
24407;SDS011;12542;50.924;4.516;2022-12-24T04:11:45;27.27;;;3.55;;
24407;SDS011;12542;50.924;4.516;2022-12-24T04:14:11;27.20;;;4.57;;
24407;SDS011;12542;50.924;4.516;2022-12-24T04:16:36;29.05;;;5.38;;
24407;SDS011;12542;50.924;4.516;2022-12-24T04:19:02;35.08;;;4.53;;
24407;SDS011;12542;50.924;4.516;2022-12-24T04:21:28;30.90;;;5.15;;
24407;SDS011;12542;50.924;4.516;2022-12-24T04:23:53;26.95;;;4.13;;
24407;SDS011;12542;50.924;4.516;2022-12-24T04:26:19;32.55;;;4.13;;
24407;SDS011;12542;50.924;4.516;2022-12-24T04:28:45;28.65;;;4.20;;
24407;SDS011;12542;50.924;4.516;2022-12-24T04:31:11;30.33;;;4.40;;
24407;SDS011;12542;50.924;4.516;2022-12-24T04:33:40;29.10;;;4.22;;
24407;SDS011;12542;50.924;4.516;2022-12-24T04:36:06;33.17;;;4.32;;
24407;SDS011;12542;50.924;4.516;2022-12-24T04:38:32;31.83;;;4.30;;
24407;SDS011;12542;50.924;4.516;2022-12-24T04:43:31;27.23;;;4.57;;
24407;SDS011;12542;50.924;4.516;2022-12-24T04:46:31;25.88;;;4.45;;
24407;SDS011;12542;50.924;4.516;2022-12-24T04:48:56;30.40;;;4.40;;
24407;SDS011;12542;50.924;4.516;2022-12-24T04:51:23;29.77;;;4.38;;
24407;SDS011;12542;50.924;4.516;2022-12-24T04:53:54;34.78;;;4.75;;
24407;SDS011;12542;50.924;4.516;2022-12-24T04:56:24;31.55;;;4.63;;
24407;SDS011;12542;50.924;4.516;2022-12-24T04:58:53;40.85;;;6.15;;
24407;SDS011;12542;50.924;4.516;2022-12-24T05:01:23;27.65;;;4.45;;
24407;SDS011;12542;50.924;4.516;2022-12-24T05:03:50;31.65;;;4.63;;
24407;SDS011;12542;50.924;4.516;2022-12-24T05:06:22;37.30;;;4.82;;
24407;SDS011;12542;50.924;4.516;2022-12-24T05:08:49;26.27;;;4.13;;
24407;SDS011;12542;50.924;4.516;2022-12-24T05:11:17;27.58;;;4.20;;
24407;SDS011;12542;50.924;4.516;2022-12-24T05:13:43;23.70;;;4.38;;
24407;SDS011;12542;50.924;4.516;2022-12-24T05:16:10;25.55;;;5.18;;
24407;SDS011;12542;50.924;4.516;2022-12-24T05:18:36;27.70;;;4.22;;
24407;SDS011;12542;50.924;4.516;2022-12-24T05:21:06;37.67;;;5.70;;
24407;SDS011;12542;50.924;4.516;2022-12-24T05:23:38;29.50;;;5.68;;
24407;SDS011;12542;50.924;4.516;2022-12-24T05:26:29;28.30;;;4.65;;
24407;SDS011;12542;50.924;4.516;2022-12-24T05:29:05;42.67;;;4.88;;
24407;SDS011;12542;50.924;4.516;2022-12-24T05:31:32;32.25;;;4.28;;
24407;SDS011;12542;50.924;4.516;2022-12-24T05:33:59;32.53;;;4.57;;
24407;SDS011;12542;50.924;4.516;2022-12-24T05:36:25;33.30;;;4.35;;
24407;SDS011;12542;50.924;4.516;2022-12-24T05:38:51;27.88;;;4.38;;
24407;SDS011;12542;50.924;4.516;2022-12-24T05:41:18;38.58;;;5.13;;
24407;SDS011;12542;50.924;4.516;2022-12-24T05:43:47;35.22;;;5.50;;
24407;SDS011;12542;50.924;4.516;2022-12-24T05:46:13;23.33;;;4.47;;
24407;SDS011;12542;50.924;4.516;2022-12-24T05:48:41;25.17;;;4.43;;
24407;SDS011;12542;50.924;4.516;2022-12-24T05:51:08;27.65;;;4.80;;
24407;SDS011;12542;50.924;4.516;2022-12-24T05:53:35;25.83;;;4.55;;
24407;SDS011;12542;50.924;4.516;2022-12-24T05:56:20;30.27;;;4.45;;
24407;SDS011;12542;50.924;4.516;2022-12-24T05:58:48;40.42;;;5.47;;
24407;SDS011;12542;50.924;4.516;2022-12-24T06:01:15;34.30;;;4.75;;
24407;SDS011;12542;50.924;4.516;2022-12-24T06:03:44;29.88;;;4.88;;
24407;SDS011;12542;50.924;4.516;2022-12-24T06:06:11;31.70;;;4.50;;
24407;SDS011;12542;50.924;4.516;2022-12-24T06:08:39;31.58;;;4.55;;
24407;SDS011;12542;50.924;4.516;2022-12-24T06:11:08;30.83;;;4.97;;
24407;SDS011;12542;50.924;4.516;2022-12-24T06:13:35;28.95;;;4.90;;
24407;SDS011;12542;50.924;4.516;2022-12-24T06:16:02;37.17;;;5.15;;
24407;SDS011;12542;50.924;4.516;2022-12-24T06:18:30;33.33;;;5.05;;
24407;SDS011;12542;50.924;4.516;2022-12-24T06:20:57;36.67;;;4.85;;
24407;SDS011;12542;50.924;4.516;2022-12-24T06:23:25;32.97;;;4.70;;
24407;SDS011;12542;50.924;4.516;2022-12-24T06:25:55;37.03;;;5.85;;
24407;SDS011;12542;50.924;4.516;2022-12-24T06:28:21;26.67;;;4.88;;
24407;SDS011;12542;50.924;4.516;2022-12-24T06:30:48;33.83;;;5.55;;
24407;SDS011;12542;50.924;4.516;2022-12-24T06:33:14;33.20;;;4.97;;
24407;SDS011;12542;50.924;4.516;2022-12-24T06:35:42;27.35;;;4.47;;
24407;SDS011;12542;50.924;4.516;2022-12-24T06:38:09;27.65;;;4.47;;
24407;SDS011;12542;50.924;4.516;2022-12-24T06:40:36;25.08;;;4.20;;
24407;SDS011;12542;50.924;4.516;2022-12-24T06:43:03;32.08;;;4.55;;
24407;SDS011;12542;50.924;4.516;2022-12-24T06:45:29;30.13;;;5.13;;
24407;SDS011;12542;50.924;4.516;2022-12-24T06:47:56;36.50;;;5.20;;
24407;SDS011;12542;50.924;4.516;2022-12-24T06:50:22;33.80;;;5.25;;
24407;SDS011;12542;50.924;4.516;2022-12-24T06:52:48;24.25;;;4.35;;
24407;SDS011;12542;50.924;4.516;2022-12-24T06:55:16;36.67;;;5.15;;
24407;SDS011;12542;50.924;4.516;2022-12-24T06:57:42;34.67;;;4.43;;
24407;SDS011;12542;50.924;4.516;2022-12-24T07:00:08;25.40;;;5.10;;
24407;SDS011;12542;50.924;4.516;2022-12-24T07:02:38;30.50;;;5.03;;
24407;SDS011;12542;50.924;4.516;2022-12-24T07:05:05;29.30;;;4.68;;
24407;SDS011;12542;50.924;4.516;2022-12-24T07:07:31;28.08;;;5.03;;
24407;SDS011;12542;50.924;4.516;2022-12-24T07:09:57;36.00;;;4.82;;
24407;SDS011;12542;50.924;4.516;2022-12-24T07:12:23;24.63;;;4.15;;
24407;SDS011;12542;50.924;4.516;2022-12-24T07:14:50;37.00;;;5.20;;
24407;SDS011;12542;50.924;4.516;2022-12-24T07:17:16;33.92;;;4.50;;
24407;SDS011;12542;50.924;4.516;2022-12-24T07:19:42;37.53;;;5.13;;
24407;SDS011;12542;50.924;4.516;2022-12-24T07:22:08;37.47;;;5.07;;
24407;SDS011;12542;50.924;4.516;2022-12-24T07:24:34;33.35;;;4.68;;
24407;SDS011;12542;50.924;4.516;2022-12-24T07:27:00;34.55;;;5.18;;
24407;SDS011;12542;50.924;4.516;2022-12-24T07:29:26;30.23;;;4.65;;
24407;SDS011;12542;50.924;4.516;2022-12-24T07:31:52;28.77;;;4.15;;
24407;SDS011;12542;50.924;4.516;2022-12-24T07:34:20;28.27;;;4.45;;
24407;SDS011;12542;50.924;4.516;2022-12-24T07:36:46;40.22;;;5.05;;
24407;SDS011;12542;50.924;4.516;2022-12-24T07:39:12;39.90;;;5.45;;
24407;SDS011;12542;50.924;4.516;2022-12-24T07:41:38;31.60;;;5.30;;
24407;SDS011;12542;50.924;4.516;2022-12-24T07:44:04;35.85;;;4.97;;
24407;SDS011;12542;50.924;4.516;2022-12-24T07:46:29;36.10;;;5.18;;
24407;SDS011;12542;50.924;4.516;2022-12-24T07:48:55;30.38;;;5.22;;
24407;SDS011;12542;50.924;4.516;2022-12-24T07:51:21;34.67;;;4.38;;
24407;SDS011;12542;50.924;4.516;2022-12-24T07:53:47;26.02;;;4.43;;
24407;SDS011;12542;50.924;4.516;2022-12-24T07:56:13;29.42;;;5.13;;
24407;SDS011;12542;50.924;4.516;2022-12-24T07:58:40;36.58;;;4.82;;
24407;SDS011;12542;50.924;4.516;2022-12-24T08:01:07;22.05;;;4.05;;
24407;SDS011;12542;50.924;4.516;2022-12-24T08:03:33;30.70;;;5.35;;
24407;SDS011;12542;50.924;4.516;2022-12-24T08:06:00;29.90;;;4.88;;
24407;SDS011;12542;50.924;4.516;2022-12-24T08:08:25;33.25;;;5.07;;
24407;SDS011;12542;50.924;4.516;2022-12-24T08:10:58;29.00;;;4.97;;
24407;SDS011;12542;50.924;4.516;2022-12-24T08:13:28;32.15;;;5.72;;
24407;SDS011;12542;50.924;4.516;2022-12-24T08:15:54;32.00;;;5.15;;
24407;SDS011;12542;50.924;4.516;2022-12-24T08:18:20;31.88;;;5.30;;
24407;SDS011;12542;50.924;4.516;2022-12-24T08:20:48;34.25;;;5.72;;
24407;SDS011;12542;50.924;4.516;2022-12-24T08:23:14;38.83;;;5.63;;
24407;SDS011;12542;50.924;4.516;2022-12-24T08:25:44;35.45;;;5.72;;
24407;SDS011;12542;50.924;4.516;2022-12-24T08:28:12;29.98;;;4.90;;
24407;SDS011;12542;50.924;4.516;2022-12-24T08:30:39;31.00;;;5.20;;
24407;SDS011;12542;50.924;4.516;2022-12-24T08:33:06;27.45;;;4.75;;
24407;SDS011;12542;50.924;4.516;2022-12-24T08:35:35;33.72;;;5.32;;
24407;SDS011;12542;50.924;4.516;2022-12-24T08:38:00;33.58;;;5.15;;
24407;SDS011;12542;50.924;4.516;2022-12-24T08:40:26;19.40;;;4.05;;
24407;SDS011;12542;50.924;4.516;2022-12-24T08:42:52;35.47;;;5.32;;
24407;SDS011;12542;50.924;4.516;2022-12-24T08:45:18;27.90;;;5.15;;
24407;SDS011;12542;50.924;4.516;2022-12-24T08:47:45;28.45;;;5.57;;
24407;SDS011;12542;50.924;4.516;2022-12-24T08:50:11;27.55;;;5.35;;
24407;SDS011;12542;50.924;4.516;2022-12-24T08:52:38;32.45;;;4.40;;
24407;SDS011;12542;50.924;4.516;2022-12-24T08:55:04;33.35;;;4.47;;
24407;SDS011;12542;50.924;4.516;2022-12-24T08:57:30;35.80;;;4.32;;
24407;SDS011;12542;50.924;4.516;2022-12-24T09:00:00;33.40;;;5.32;;
24407;SDS011;12542;50.924;4.516;2022-12-24T09:02:26;30.95;;;4.60;;
24407;SDS011;12542;50.924;4.516;2022-12-24T09:04:52;37.50;;;7.20;;
24407;SDS011;12542;50.924;4.516;2022-12-24T09:07:18;32.72;;;5.78;;
24407;SDS011;12542;50.924;4.516;2022-12-24T09:09:44;25.92;;;4.25;;
24407;SDS011;12542;50.924;4.516;2022-12-24T09:12:10;33.97;;;4.70;;
24407;SDS011;12542;50.924;4.516;2022-12-24T09:14:36;27.88;;;5.28;;
24407;SDS011;12542;50.924;4.516;2022-12-24T09:17:02;27.40;;;4.88;;
24407;SDS011;12542;50.924;4.516;2022-12-24T09:19:28;27.60;;;5.28;;
24407;SDS011;12542;50.924;4.516;2022-12-24T09:21:53;31.73;;;5.55;;
24407;SDS011;12542;50.924;4.516;2022-12-24T09:24:19;32.28;;;4.45;;
24407;SDS011;12542;50.924;4.516;2022-12-24T09:26:45;29.63;;;4.40;;
24407;SDS011;12542;50.924;4.516;2022-12-24T09:29:13;29.13;;;4.90;;
24407;SDS011;12542;50.924;4.516;2022-12-24T09:31:39;34.05;;;4.68;;
24407;SDS011;12542;50.924;4.516;2022-12-24T09:34:05;29.10;;;4.80;;
24407;SDS011;12542;50.924;4.516;2022-12-24T09:36:32;29.90;;;4.97;;
24407;SDS011;12542;50.924;4.516;2022-12-24T09:38:58;40.92;;;7.47;;
24407;SDS011;12542;50.924;4.516;2022-12-24T09:46:45;30.42;;;4.82;;
24407;SDS011;12542;50.924;4.516;2022-12-24T09:49:16;24.80;;;4.55;;
24407;SDS011;12542;50.924;4.516;2022-12-24T09:51:50;35.47;;;5.95;;
24407;SDS011;12542;50.924;4.516;2022-12-24T09:54:34;25.88;;;5.65;;
24407;SDS011;12542;50.924;4.516;2022-12-24T09:57:19;33.58;;;5.03;;
24407;SDS011;12542;50.924;4.516;2022-12-24T09:59:52;29.27;;;6.10;;
24407;SDS011;12542;50.924;4.516;2022-12-24T10:02:20;25.15;;;5.80;;
24407;SDS011;12542;50.924;4.516;2022-12-24T10:04:48;36.13;;;6.50;;
24407;SDS011;12542;50.924;4.516;2022-12-24T10:10:16;36.75;;;7.53;;
24407;SDS011;12542;50.924;4.516;2022-12-24T10:15:15;29.60;;;6.75;;
24407;SDS011;12542;50.924;4.516;2022-12-24T10:18:08;30.98;;;6.63;;
24407;SDS011;12542;50.924;4.516;2022-12-24T10:20:55;28.90;;;5.25;;
24407;SDS011;12542;50.924;4.516;2022-12-24T10:24:03;28.98;;;6.07;;
24407;SDS011;12542;50.924;4.516;2022-12-24T10:29:07;37.90;;;5.65;;
24407;SDS011;12542;50.924;4.516;2022-12-24T10:32:20;30.75;;;4.43;;
24407;SDS011;12542;50.924;4.516;2022-12-24T10:34:35;24.52;;;5.13;;
24407;SDS011;12542;50.924;4.516;2022-12-24T10:37:05;29.45;;;4.03;;
24407;SDS011;12542;50.924;4.516;2022-12-24T10:39:34;25.98;;;4.85;;
24407;SDS011;12542;50.924;4.516;2022-12-24T10:42:01;28.13;;;5.00;;
24407;SDS011;12542;50.924;4.516;2022-12-24T10:44:29;31.42;;;5.10;;
24407;SDS011;12542;50.924;4.516;2022-12-24T10:46:57;25.27;;;4.35;;
24407;SDS011;12542;50.924;4.516;2022-12-24T10:52:09;30.58;;;4.60;;
24407;SDS011;12542;50.924;4.516;2022-12-24T10:54:35;24.90;;;5.28;;
24407;SDS011;12542;50.924;4.516;2022-12-24T10:57:04;29.23;;;4.95;;
24407;SDS011;12542;50.924;4.516;2022-12-24T10:59:49;32.75;;;4.78;;
24407;SDS011;12542;50.924;4.516;2022-12-24T11:05:30;22.40;;;4.60;;
24407;SDS011;12542;50.924;4.516;2022-12-24T11:08:01;30.80;;;5.43;;
24407;SDS011;12542;50.924;4.516;2022-12-24T11:10:39;23.67;;;4.68;;
24407;SDS011;12542;50.924;4.516;2022-12-24T11:14:10;23.38;;;3.90;;
24407;SDS011;12542;50.924;4.516;2022-12-24T11:18:44;34.35;;;5.63;;
24407;SDS011;12542;50.924;4.516;2022-12-24T11:21:17;27.65;;;4.70;;
24407;SDS011;12542;50.924;4.516;2022-12-24T11:23:55;28.70;;;4.32;;
24407;SDS011;12542;50.924;4.516;2022-12-24T11:26:30;36.38;;;5.10;;
24407;SDS011;12542;50.924;4.516;2022-12-24T11:31:39;24.33;;;4.15;;
24407;SDS011;12542;50.924;4.516;2022-12-24T11:43:46;21.13;;;4.05;;
24407;SDS011;12542;50.924;4.516;2022-12-24T11:48:46;23.52;;;4.68;;
24407;SDS011;12542;50.924;4.516;2022-12-24T11:51:20;35.75;;;6.03;;
24407;SDS011;12542;50.924;4.516;2022-12-24T11:56:42;23.55;;;5.30;;
24407;SDS011;12542;50.924;4.516;2022-12-24T12:04:33;30.60;;;4.78;;
24407;SDS011;12542;50.924;4.516;2022-12-24T12:07:03;29.58;;;5.47;;
24407;SDS011;12542;50.924;4.516;2022-12-24T12:09:31;34.80;;;5.97;;
24407;SDS011;12542;50.924;4.516;2022-12-24T12:12:04;35.20;;;4.93;;
24407;SDS011;12542;50.924;4.516;2022-12-24T12:14:35;30.48;;;4.93;;
24407;SDS011;12542;50.924;4.516;2022-12-24T12:25:46;32.90;;;5.95;;
24407;SDS011;12542;50.924;4.516;2022-12-24T12:28:19;29.67;;;4.90;;
24407;SDS011;12542;50.924;4.516;2022-12-24T12:31:09;33.80;;;6.50;;
24407;SDS011;12542;50.924;4.516;2022-12-24T12:33:37;26.25;;;4.20;;
24407;SDS011;12542;50.924;4.516;2022-12-24T12:36:07;46.63;;;20.65;;
24407;SDS011;12542;50.924;4.516;2022-12-24T12:38:35;79.82;;;36.42;;
24407;SDS011;12542;50.924;4.516;2022-12-24T12:52:01;293.17;;;130.68;;
24407;SDS011;12542;50.924;4.516;2022-12-24T12:57:20;156.25;;;80.30;;
24407;SDS011;12542;50.924;4.516;2022-12-24T13:03:12;31.63;;;10.23;;
24407;SDS011;12542;50.924;4.516;2022-12-24T13:08:27;30.00;;;10.95;;
24407;SDS011;12542;50.924;4.516;2022-12-24T13:13:55;30.10;;;8.10;;
24407;SDS011;12542;50.924;4.516;2022-12-24T13:21:46;31.48;;;8.02;;
24407;SDS011;12542;50.924;4.516;2022-12-24T13:24:25;22.83;;;5.05;;
24407;SDS011;12542;50.924;4.516;2022-12-24T13:27:37;20.75;;;4.80;;
24407;SDS011;12542;50.924;4.516;2022-12-24T13:48:39;24.95;;;5.28;;
24407;SDS011;12542;50.924;4.516;2022-12-24T13:53:30;21.63;;;4.75;;
24407;SDS011;12542;50.924;4.516;2022-12-24T13:56:08;22.17;;;5.20;;
24407;SDS011;12542;50.924;4.516;2022-12-24T13:58:40;23.08;;;5.10;;
24407;SDS011;12542;50.924;4.516;2022-12-24T14:01:12;27.45;;;5.63;;
24407;SDS011;12542;50.924;4.516;2022-12-24T14:06:26;22.40;;;5.22;;
24407;SDS011;12542;50.924;4.516;2022-12-24T14:09:07;24.25;;;4.63;;
24407;SDS011;12542;50.924;4.516;2022-12-24T14:14:50;29.30;;;7.20;;
24407;SDS011;12542;50.924;4.516;2022-12-24T14:22:22;22.42;;;6.55;;
24407;SDS011;12542;50.924;4.516;2022-12-24T14:25:03;26.30;;;6.40;;
24407;SDS011;12542;50.924;4.516;2022-12-24T14:30:14;30.35;;;5.80;;
24407;SDS011;12542;50.924;4.516;2022-12-24T14:32:50;28.52;;;7.40;;
24407;SDS011;12542;50.924;4.516;2022-12-24T14:35:21;29.38;;;6.28;;
24407;SDS011;12542;50.924;4.516;2022-12-24T14:37:48;26.42;;;6.40;;
24407;SDS011;12542;50.924;4.516;2022-12-24T14:40:29;29.98;;;7.18;;
24407;SDS011;12542;50.924;4.516;2022-12-24T14:45:41;22.33;;;7.70;;
24407;SDS011;12542;50.924;4.516;2022-12-24T14:56:17;24.27;;;5.40;;
24407;SDS011;12542;50.924;4.516;2022-12-24T14:58:45;30.77;;;7.25;;
24407;SDS011;12542;50.924;4.516;2022-12-24T15:03:58;22.05;;;5.85;;
24407;SDS011;12542;50.924;4.516;2022-12-24T15:06:25;24.92;;;4.97;;
24407;SDS011;12542;50.924;4.516;2022-12-24T15:08:51;24.85;;;5.10;;
24407;SDS011;12542;50.924;4.516;2022-12-24T15:11:21;24.20;;;4.93;;
24407;SDS011;12542;50.924;4.516;2022-12-24T15:13:48;22.63;;;6.50;;
24407;SDS011;12542;50.924;4.516;2022-12-24T15:16:20;30.05;;;6.07;;
24407;SDS011;12542;50.924;4.516;2022-12-24T15:18:56;36.00;;;7.70;;
24407;SDS011;12542;50.924;4.516;2022-12-24T15:23:53;22.85;;;5.22;;
24407;SDS011;12542;50.924;4.516;2022-12-24T15:26:21;30.48;;;5.70;;
24407;SDS011;12542;50.924;4.516;2022-12-24T15:28:47;29.33;;;5.90;;
24407;SDS011;12542;50.924;4.516;2022-12-24T15:31:18;33.30;;;5.45;;
24407;SDS011;12542;50.924;4.516;2022-12-24T15:33:46;33.92;;;6.50;;
24407;SDS011;12542;50.924;4.516;2022-12-24T15:36:13;32.70;;;7.22;;
24407;SDS011;12542;50.924;4.516;2022-12-24T15:38:43;37.53;;;10.45;;
24407;SDS011;12542;50.924;4.516;2022-12-24T15:41:20;38.88;;;12.48;;
24407;SDS011;12542;50.924;4.516;2022-12-24T15:43:49;34.63;;;9.55;;
24407;SDS011;12542;50.924;4.516;2022-12-24T15:46:21;31.58;;;7.60;;
24407;SDS011;12542;50.924;4.516;2022-12-24T15:48:50;32.80;;;7.15;;
24407;SDS011;12542;50.924;4.516;2022-12-24T15:51:23;26.52;;;6.00;;
24407;SDS011;12542;50.924;4.516;2022-12-24T15:53:55;34.97;;;7.63;;
24407;SDS011;12542;50.924;4.516;2022-12-24T16:01:42;34.17;;;10.48;;
24407;SDS011;12542;50.924;4.516;2022-12-24T16:04:12;28.50;;;6.28;;
24407;SDS011;12542;50.924;4.516;2022-12-24T16:06:50;27.92;;;6.15;;
24407;SDS011;12542;50.924;4.516;2022-12-24T16:11:59;26.88;;;5.47;;
24407;SDS011;12542;50.924;4.516;2022-12-24T16:14:25;29.75;;;5.95;;
24407;SDS011;12542;50.924;4.516;2022-12-24T16:16:52;40.95;;;7.53;;
24407;SDS011;12542;50.924;4.516;2022-12-24T16:21:56;32.97;;;8.63;;
24407;SDS011;12542;50.924;4.516;2022-12-24T16:24:44;37.08;;;9.23;;
24407;SDS011;12542;50.924;4.516;2022-12-24T16:27:11;35.30;;;8.57;;
24407;SDS011;12542;50.924;4.516;2022-12-24T16:29:38;35.42;;;9.27;;
24407;SDS011;12542;50.924;4.516;2022-12-24T16:32:04;41.80;;;9.77;;
24407;SDS011;12542;50.924;4.516;2022-12-24T16:34:31;40.83;;;9.05;;
24407;SDS011;12542;50.924;4.516;2022-12-24T16:36:57;28.67;;;7.88;;
24407;SDS011;12542;50.924;4.516;2022-12-24T16:39:26;34.35;;;7.53;;
24407;SDS011;12542;50.924;4.516;2022-12-24T16:41:56;37.22;;;9.18;;
24407;SDS011;12542;50.924;4.516;2022-12-24T16:44:42;29.02;;;8.13;;
24407;SDS011;12542;50.924;4.516;2022-12-24T16:47:10;40.20;;;9.00;;
24407;SDS011;12542;50.924;4.516;2022-12-24T16:49:46;34.42;;;7.72;;
24407;SDS011;12542;50.924;4.516;2022-12-24T16:52:23;29.33;;;7.22;;
24407;SDS011;12542;50.924;4.516;2022-12-24T16:54:52;29.40;;;7.25;;
24407;SDS011;12542;50.924;4.516;2022-12-24T16:57:21;39.08;;;8.30;;
24407;SDS011;12542;50.924;4.516;2022-12-24T16:59:47;36.88;;;7.88;;
24407;SDS011;12542;50.924;4.516;2022-12-24T17:02:14;31.40;;;9.48;;
24407;SDS011;12542;50.924;4.516;2022-12-24T17:04:41;36.40;;;8.10;;
24407;SDS011;12542;50.924;4.516;2022-12-24T17:07:08;41.10;;;9.23;;
24407;SDS011;12542;50.924;4.516;2022-12-24T17:09:38;33.22;;;7.75;;
24407;SDS011;12542;50.924;4.516;2022-12-24T17:12:04;33.95;;;7.55;;
24407;SDS011;12542;50.924;4.516;2022-12-24T17:14:30;32.85;;;7.75;;
24407;SDS011;12542;50.924;4.516;2022-12-24T17:16:56;35.42;;;8.80;;
24407;SDS011;12542;50.924;4.516;2022-12-24T17:19:22;38.92;;;10.45;;
24407;SDS011;12542;50.924;4.516;2022-12-24T17:21:51;31.50;;;8.02;;
24407;SDS011;12542;50.924;4.516;2022-12-24T17:24:16;33.22;;;11.85;;
24407;SDS011;12542;50.924;4.516;2022-12-24T17:26:42;33.95;;;9.48;;
24407;SDS011;12542;50.924;4.516;2022-12-24T17:29:08;28.80;;;8.40;;
24407;SDS011;12542;50.924;4.516;2022-12-24T17:31:35;42.35;;;9.63;;
24407;SDS011;12542;50.924;4.516;2022-12-24T17:34:03;37.00;;;8.90;;
24407;SDS011;12542;50.924;4.516;2022-12-24T17:36:29;37.42;;;9.95;;
24407;SDS011;12542;50.924;4.516;2022-12-24T17:38:54;37.95;;;9.82;;
24407;SDS011;12542;50.924;4.516;2022-12-24T17:41:20;27.33;;;7.88;;
24407;SDS011;12542;50.924;4.516;2022-12-24T17:43:47;38.38;;;8.65;;